createdAt,value
2022-12-31T05:15:59.796Z,70.00
2022-12-31T05:18:26.339Z,70.83
2022-12-31T05:20:52.863Z,71.47
2022-12-31T05:23:19.393Z,71.23
2022-12-31T05:25:47.023Z,70.14
2022-12-31T05:28:14.296Z,70.71
2022-12-31T05:30:41.965Z,71.65
2022-12-31T05:33:08.643Z,72.00
2022-12-31T05:35:35.192Z,71.82
2022-12-31T05:38:01.618Z,72.00
2022-12-31T05:40:28.781Z,71.46
2022-12-31T05:42:55.260Z,70.43
2022-12-31T05:45:26.720Z,70.49
2022-12-31T05:47:57.446Z,70.71
2022-12-31T05:50:24.143Z,70.09
2022-12-31T05:52:56.099Z,70.29
2022-12-31T05:55:23.422Z,70.17
2022-12-31T05:57:49.922Z,70.05
2022-12-31T06:00:16.680Z,69.61
2022-12-31T06:02:44.930Z,70.70
2022-12-31T06:05:12.210Z,70.60
2022-12-31T06:07:38.733Z,69.77
2022-12-31T06:10:05.870Z,69.47
2022-12-31T06:12:32.381Z,69.43
2022-12-31T06:14:58.917Z,69.65
2022-12-31T06:17:25.553Z,68.55
2022-12-31T06:19:52.545Z,70.28
2022-12-31T06:22:19.068Z,69.97
2022-12-31T06:24:46.561Z,69.74
2022-12-31T06:27:13.454Z,69.17
2022-12-31T06:29:40.068Z,68.81
2022-12-31T06:32:06.734Z,68.98
2022-12-31T06:34:33.449Z,68.39
2022-12-31T06:37:02.018Z,67.89
2022-12-31T06:39:28.784Z,68.00
2022-12-31T06:41:55.457Z,67.92
2022-12-31T06:44:22.609Z,68.09
2022-12-31T06:46:49.912Z,67.65
2022-12-31T06:49:16.492Z,68.00
2022-12-31T06:51:45.863Z,67.94
2022-12-31T06:54:13.257Z,67.41
2022-12-31T06:56:40.514Z,67.17
2022-12-31T06:59:29.707Z,66.39
2022-12-31T07:02:31.458Z,66.57
2022-12-31T07:05:10.868Z,68.05
2022-12-31T07:07:55.394Z,67.19
2022-12-31T07:11:19.513Z,67.52
2022-12-31T07:14:13.188Z,68.06
2022-12-31T07:17:05.349Z,66.67
2022-12-31T07:19:52.406Z,66.11
2022-12-31T07:22:22.207Z,66.43
2022-12-31T07:24:49.054Z,67.19
2022-12-31T07:27:21.578Z,67.79
2022-12-31T07:30:03.253Z,68.01
2022-12-31T07:32:45.077Z,65.66
2022-12-31T07:35:29.692Z,67.87
2022-12-31T07:38:07.849Z,68.43
2022-12-31T07:41:09.493Z,67.79
2022-12-31T07:43:46.783Z,67.86
2022-12-31T07:46:15.649Z,67.62
2022-12-31T07:48:42.476Z,67.01
2022-12-31T07:51:10.699Z,67.33
2022-12-31T07:53:39.286Z,67.53
2022-12-31T07:56:09.621Z,67.47
2022-12-31T07:58:39.614Z,67.54
2022-12-31T08:01:12.860Z,67.28
2022-12-31T08:03:52.919Z,67.62
2022-12-31T08:06:37.973Z,66.77
2022-12-31T08:09:25.896Z,67.13
2022-12-31T08:11:58.045Z,65.99
2022-12-31T08:14:26.443Z,66.62
2022-12-31T08:16:53.993Z,66.61
2022-12-31T08:19:27.108Z,66.51
2022-12-31T08:22:13.539Z,66.76
2022-12-31T08:24:49.311Z,66.46
2022-12-31T08:27:30.597Z,64.93
2022-12-31T08:30:09.528Z,67.06
2022-12-31T08:32:50.112Z,66.10
2022-12-31T08:36:01.944Z,65.36
2022-12-31T08:38:43.305Z,65.46
2022-12-31T08:41:30.108Z,64.90
2022-12-31T08:44:12.141Z,65.47
2022-12-31T08:47:03.854Z,65.97
2022-12-31T08:49:34.824Z,66.01
2022-12-31T08:52:03.823Z,65.64
2022-12-31T08:54:31.631Z,65.22
2022-12-31T08:57:20.187Z,66.80
2022-12-31T09:00:04.679Z,65.81
2022-12-31T09:02:49.534Z,66.20
2022-12-31T09:05:45.863Z,66.89
2022-12-31T09:08:35.376Z,65.91
2022-12-31T09:11:31.828Z,66.69
2022-12-31T09:14:35.815Z,66.71
2022-12-31T09:17:10.997Z,66.68
2022-12-31T09:19:37.534Z,65.63
2022-12-31T09:22:05.453Z,65.72
2022-12-31T09:24:32.432Z,66.32
2022-12-31T09:27:27.421Z,65.24
2022-12-31T09:30:01.863Z,65.94
2022-12-31T09:33:01.203Z,66.98
2022-12-31T09:35:52.890Z,65.12
2022-12-31T09:38:43.824Z,65.96
2022-12-31T09:41:34.957Z,65.43
2022-12-31T09:44:32.179Z,66.24
2022-12-31T09:47:26.109Z,66.41
2022-12-31T09:50:28.380Z,64.91
2022-12-31T09:53:14.934Z,66.14
2022-12-31T09:56:15.780Z,64.28
2022-12-31T09:59:22.738Z,65.91
2022-12-31T10:02:19.934Z,65.26
2022-12-31T10:05:09.576Z,65.26
2022-12-31T10:08:02.144Z,64.00
2022-12-31T10:10:54.928Z,64.25
2022-12-31T10:13:35.110Z,64.66
2022-12-31T10:16:06.232Z,62.94
2022-12-31T10:19:11.764Z,64.92
2022-12-31T10:22:15.474Z,63.30
2022-12-31T10:24:56.975Z,62.75
2022-12-31T10:27:26.450Z,63.05
2022-12-31T10:30:13.797Z,63.08
2022-12-31T10:33:02.095Z,64.72
2022-12-31T10:35:39.897Z,63.17
2022-12-31T10:38:40.408Z,63.57
2022-12-31T10:41:36.403Z,61.62
2022-12-31T10:44:22.591Z,61.89
2022-12-31T10:47:07.875Z,62.17
2022-12-31T10:49:56.413Z,60.74
2022-12-31T10:52:42.195Z,62.44
2022-12-31T10:55:44.835Z,61.11
2022-12-31T10:58:54.989Z,61.93
2022-12-31T11:01:32.704Z,61.69
2022-12-31T11:04:21.208Z,62.60
2022-12-31T11:07:10.143Z,62.01
2022-12-31T11:10:20.089Z,63.23
2022-12-31T11:13:24.516Z,61.57
2022-12-31T11:16:13.968Z,61.58
2022-12-31T11:19:05.977Z,61.67
2022-12-31T11:21:47.701Z,61.55
2022-12-31T11:24:42.270Z,61.32
2022-12-31T11:27:24.062Z,60.91
2022-12-31T11:30:19.362Z,60.85
2022-12-31T11:32:55.806Z,61.08
2022-12-31T11:35:22.308Z,60.59
2022-12-31T11:37:55.686Z,59.38
2022-12-31T11:40:59.714Z,59.28
2022-12-31T11:43:49.493Z,60.23
2022-12-31T11:46:44.921Z,58.88
2022-12-31T11:49:45.060Z,58.21
2022-12-31T11:52:21.379Z,59.94
2022-12-31T11:54:48.251Z,59.14
2022-12-31T11:57:30.069Z,59.80
2022-12-31T12:00:04.629Z,58.39
2022-12-31T12:02:43.979Z,56.81
2022-12-31T12:05:16.740Z,55.83
2022-12-31T12:07:43.362Z,57.40
2022-12-31T12:10:42.925Z,57.13
2022-12-31T12:13:20.593Z,56.13
2022-12-31T12:15:51.255Z,54.16
2022-12-31T12:18:28.309Z,55.37
2022-12-31T12:21:09.804Z,55.71
2022-12-31T12:23:36.775Z,55.91
2022-12-31T12:26:04.317Z,55.22
2022-12-31T12:28:44.525Z,53.98
2022-12-31T12:31:21.118Z,55.34
2022-12-31T12:33:50.137Z,54.55
2022-12-31T12:36:19.121Z,53.96
2022-12-31T12:38:45.755Z,53.23
2022-12-31T12:41:21.549Z,54.94
2022-12-31T12:43:48.108Z,54.00
2022-12-31T12:46:35.366Z,54.16
2022-12-31T12:49:03.720Z,53.92
2022-12-31T12:51:48.086Z,52.07
2022-12-31T12:54:42.169Z,52.08
2022-12-31T12:57:24.800Z,53.57
2022-12-31T13:00:09.816Z,50.72
2022-12-31T13:02:54.858Z,49.56
2022-12-31T13:05:33.516Z,51.93
2022-12-31T13:08:16.791Z,52.81
2022-12-31T13:11:04.672Z,53.19
2022-12-31T13:13:51.836Z,52.66
2022-12-31T13:16:42.651Z,52.39
2022-12-31T13:19:36.726Z,51.44
2022-12-31T13:22:36.889Z,50.48
2022-12-31T13:25:26.489Z,52.34
2022-12-31T13:27:57.383Z,51.82
2022-12-31T13:30:44.168Z,51.71
2022-12-31T13:33:18.463Z,51.98
2022-12-31T13:36:00.704Z,52.47
2022-12-31T13:38:31.783Z,51.21
2022-12-31T13:40:58.353Z,49.90
2022-12-31T13:43:45.781Z,49.38
2022-12-31T13:46:19.030Z,48.20
2022-12-31T13:48:56.861Z,47.28
2022-12-31T13:51:42.220Z,50.05
2022-12-31T13:54:30.155Z,51.03
2022-12-31T13:57:04.861Z,52.11
2022-12-31T13:59:46.732Z,52.93
2022-12-31T14:02:40.612Z,52.29
2022-12-31T14:05:23.303Z,52.45
2022-12-31T14:07:55.879Z,54.20
2022-12-31T14:10:32.491Z,54.59
2022-12-31T14:13:14.560Z,55.26
2022-12-31T14:16:24.276Z,56.29
2022-12-31T14:19:18.442Z,55.30
2022-12-31T14:22:02.529Z,55.09
2022-12-31T14:24:46.288Z,54.50
2022-12-31T14:27:21.806Z,54.63
2022-12-31T14:29:54.962Z,54.71
2022-12-31T14:33:00.510Z,55.26
2022-12-31T14:35:48.244Z,55.44
2022-12-31T14:38:24.803Z,54.64
2022-12-31T14:41:00.259Z,54.09
2022-12-31T14:43:48.502Z,55.06
2022-12-31T14:46:31.704Z,54.49
2022-12-31T14:49:18.822Z,54.45
2022-12-31T14:51:45.328Z,54.17
2022-12-31T14:54:37.965Z,54.26
2022-12-31T14:57:16.754Z,54.04
2022-12-31T15:00:00.362Z,54.72
2022-12-31T15:02:28.594Z,54.45
2022-12-31T15:05:10.584Z,53.52
2022-12-31T15:08:06.355Z,54.57
2022-12-31T15:10:57.263Z,54.10
2022-12-31T15:13:52.494Z,54.80
2022-12-31T15:16:37.957Z,54.36
2022-12-31T15:19:28.860Z,54.11
2022-12-31T15:22:06.615Z,54.00
2022-12-31T15:24:33.101Z,54.29
2022-12-31T15:27:03.028Z,53.57
2022-12-31T15:29:56.337Z,55.63
2022-12-31T15:32:32.426Z,54.45
2022-12-31T15:35:22.203Z,55.17
2022-12-31T15:38:16.584Z,55.07
2022-12-31T15:40:52.473Z,54.19
2022-12-31T15:43:25.155Z,54.58
2022-12-31T15:45:55.251Z,54.25
2022-12-31T15:48:28.012Z,54.52
2022-12-31T15:50:58.667Z,54.95
2022-12-31T15:53:38.747Z,54.52
2022-12-31T15:56:07.685Z,54.55
2022-12-31T15:58:36.621Z,54.26
2022-12-31T16:01:24.210Z,54.39
2022-12-31T16:04:02.781Z,53.99
2022-12-31T16:06:31.460Z,53.96
2022-12-31T16:08:58.682Z,53.97
2022-12-31T16:11:27.319Z,53.96
2022-12-31T16:13:55.857Z,54.93
2022-12-31T16:16:28.951Z,53.85
2022-12-31T16:18:56.703Z,53.37
2022-12-31T16:21:34.852Z,54.70
2022-12-31T16:24:06.951Z,53.94
2022-12-31T16:26:48.626Z,54.32
2022-12-31T16:29:18.004Z,54.21
2022-12-31T16:31:45.895Z,54.79
2022-12-31T16:34:18.866Z,54.49
2022-12-31T16:37:02.098Z,55.01
2022-12-31T16:39:34.699Z,55.46
2022-12-31T16:42:14.738Z,53.72
2022-12-31T16:44:41.623Z,55.11
2022-12-31T16:47:15.223Z,55.06
2022-12-31T16:49:42.846Z,56.18
2022-12-31T16:52:30.674Z,55.83
2022-12-31T16:54:59.425Z,55.09
2022-12-31T16:57:30.581Z,55.04
2022-12-31T17:00:06.927Z,56.05
2022-12-31T17:02:39.117Z,54.95
2022-12-31T17:05:18.628Z,54.82
2022-12-31T17:07:45.135Z,55.81
2022-12-31T17:10:32.818Z,55.29
2022-12-31T17:13:28.317Z,55.30
2022-12-31T17:15:50.125Z,54.79
2022-12-31T17:18:29.927Z,54.67
2022-12-31T17:21:07.940Z,55.20
2022-12-31T17:23:36.526Z,54.54
2022-12-31T17:26:13.402Z,53.49
2022-12-31T17:28:49.132Z,53.50
2022-12-31T17:34:12.515Z,53.36
2022-12-31T17:36:42.018Z,53.59
2022-12-31T17:39:18.055Z,54.08
2022-12-31T17:41:47.255Z,54.46
2022-12-31T17:44:21.302Z,53.88
2022-12-31T17:46:51.759Z,54.07
2022-12-31T17:49:22.053Z,52.86
2022-12-31T17:51:49.389Z,53.50
2022-12-31T17:54:17.417Z,53.93
2022-12-31T17:56:46.503Z,53.66
2022-12-31T17:59:25.864Z,54.09
2022-12-31T18:01:53.277Z,52.85
2022-12-31T18:04:21.611Z,53.26
2022-12-31T18:06:48.509Z,54.08
2022-12-31T18:09:16.725Z,53.57
2022-12-31T18:11:44.137Z,53.28
2022-12-31T18:14:18.015Z,52.54
2022-12-31T18:16:44.743Z,52.68
2022-12-31T18:19:45.666Z,51.79
2022-12-31T18:22:03.294Z,52.34
2022-12-31T18:24:30.156Z,52.55
2022-12-31T18:26:56.834Z,51.46
2022-12-31T18:29:23.715Z,51.81
2022-12-31T18:31:51.173Z,51.40
2022-12-31T18:34:18.912Z,50.90
2022-12-31T18:36:46.794Z,51.48
2022-12-31T18:39:14.061Z,51.91
2022-12-31T18:41:49.228Z,52.04
2022-12-31T18:44:17.261Z,52.22
2022-12-31T18:46:44.122Z,51.76
2022-12-31T18:49:11.161Z,51.22
2022-12-31T18:51:37.976Z,51.39
2022-12-31T18:54:05.120Z,52.11
2022-12-31T18:56:32.191Z,51.00
2022-12-31T18:59:00.038Z,51.49
2022-12-31T19:01:38.005Z,51.76
2022-12-31T19:04:10.954Z,51.25
2022-12-31T19:06:37.798Z,51.50
2022-12-31T19:09:13.210Z,52.24
2022-12-31T19:11:51.965Z,52.67
2022-12-31T19:14:23.393Z,52.80
2022-12-31T19:16:52.229Z,52.39
2022-12-31T19:19:19.235Z,52.21
2022-12-31T19:21:46.482Z,52.37
2022-12-31T19:24:27.783Z,52.50
2022-12-31T19:26:55.193Z,54.02
2022-12-31T19:29:24.446Z,53.48
2022-12-31T19:31:51.702Z,53.45
2022-12-31T19:34:18.596Z,52.46
2022-12-31T19:36:46.006Z,52.68
2022-12-31T19:39:19.282Z,52.71
2022-12-31T19:41:50.125Z,51.40
2022-12-31T19:44:21.413Z,52.73
2022-12-31T19:46:49.422Z,52.42
2022-12-31T19:49:16.368Z,51.73
2022-12-31T19:51:43.851Z,51.46
2022-12-31T19:54:12.962Z,52.30
2022-12-31T19:56:39.806Z,52.34
2022-12-31T19:59:07.852Z,53.16
2022-12-31T20:01:34.759Z,53.23
2022-12-31T20:04:01.969Z,51.41
2022-12-31T20:06:29.001Z,52.14
2022-12-31T20:08:55.768Z,52.75
2022-12-31T20:11:25.797Z,52.98
2022-12-31T20:13:54.118Z,52.72
2022-12-31T20:16:23.361Z,53.72
2022-12-31T20:18:50.956Z,53.59
2022-12-31T20:21:26.999Z,53.29
2022-12-31T20:23:54.950Z,52.33
2022-12-31T20:26:23.646Z,52.71
2022-12-31T20:28:51.409Z,52.10
2022-12-31T20:31:25.211Z,51.86
2022-12-31T20:33:54.388Z,51.77
2022-12-31T20:36:22.150Z,51.69
2022-12-31T20:38:49.708Z,52.06
2022-12-31T20:41:22.418Z,51.27
2022-12-31T20:43:50.074Z,52.17
2022-12-31T20:46:25.346Z,51.80
2022-12-31T20:48:55.290Z,51.30
2022-12-31T20:51:23.502Z,51.85
2022-12-31T20:53:52.944Z,52.15
2022-12-31T20:56:20.015Z,51.93
2022-12-31T20:58:47.508Z,52.16
2022-12-31T21:01:16.051Z,52.19
2022-12-31T21:06:31.836Z,51.30
2022-12-31T21:09:01.341Z,51.92
2022-12-31T21:11:47.371Z,51.45
2022-12-31T21:14:14.715Z,51.21
2022-12-31T21:16:41.984Z,52.01
2022-12-31T21:19:14.998Z,52.78
2022-12-31T21:21:42.734Z,52.50
2022-12-31T21:24:09.652Z,53.16
2022-12-31T21:26:36.910Z,52.38
2022-12-31T21:29:03.638Z,52.93
2022-12-31T21:31:30.784Z,53.67
2022-12-31T21:34:01.786Z,52.48
2022-12-31T21:36:28.616Z,53.63
2022-12-31T21:38:56.452Z,53.05
2022-12-31T21:41:42.100Z,52.38
2022-12-31T21:44:12.267Z,52.92
2022-12-31T21:46:45.252Z,53.25
2022-12-31T21:49:21.734Z,53.01
2022-12-31T21:52:07.410Z,53.47
2022-12-31T21:54:52.853Z,53.62
2022-12-31T21:58:24.130Z,53.66
2022-12-31T22:00:49.505Z,53.89
2022-12-31T22:03:25.269Z,54.47
2022-12-31T22:05:56.212Z,54.64
2022-12-31T22:08:24.371Z,54.40
2022-12-31T22:10:53.013Z,54.96
2022-12-31T22:13:20.733Z,54.04
2022-12-31T22:15:49.343Z,55.69
2022-12-31T22:18:16.961Z,55.40
2022-12-31T22:20:43.864Z,54.75
2022-12-31T22:23:10.638Z,56.11
2022-12-31T22:25:38.756Z,56.25
2022-12-31T22:30:53.571Z,55.91
2022-12-31T22:33:20.537Z,56.29
2022-12-31T22:36:10.705Z,57.09
2022-12-31T22:38:38.921Z,55.59
2022-12-31T22:41:08.014Z,57.12
2022-12-31T22:43:37.611Z,56.06
2022-12-31T22:46:12.779Z,57.52
2022-12-31T22:48:40.684Z,57.44
2022-12-31T22:51:09.586Z,57.10
2022-12-31T22:53:38.817Z,56.57
2022-12-31T22:56:06.781Z,56.98
2022-12-31T22:58:35.620Z,55.64
